Time;durP1;ratioP1;P1;durP2;ratioP2;P2;SDS_P1;SDS_P2;PMS_P1;PMS_P2;Temp;Humidity;BMP_temperature;BMP_pressure;BME280_temperature;BME280_humidity;BME280_pressure;Samples;Min_cycle;Max_cycle;Signal;HPM_P1;HPM_P2
2023/07/08 00:04:33;;;;;;;5.30;4.28;;;;;;;25.90;34.31;100899.94;21003409;28;20033;-61
2023/07/08 00:14:34;;;;;;;5.38;4.80;;;;;;;25.80;34.35;100885.03;21008149;28;20040;-59
2023/07/08 00:24:36;;;;;;;5.55;4.88;;;;;;;25.90;34.65;100881.16;21090574;28;20040;-60
2023/07/08 00:34:40;;;;;;;6.72;4.72;;;;;;;25.93;35.61;100871.25;21011918;28;20392;-60
2023/07/08 00:44:48;;;;;;;5.85;4.90;;;;;;;25.88;35.10;100880.63;21062829;28;20040;-59
2023/07/08 00:54:51;;;;;;;5.03;4.53;;;;;;;25.89;34.73;100882.31;21007635;28;20379;-60
2023/07/08 01:04:58;;;;;;;6.13;4.78;;;;;;;25.92;34.27;100875.22;21004467;28;20041;-60
2023/07/08 01:15:04;;;;;;;5.32;4.82;;;;;;;25.92;34.24;100886.44;21003128;28;20044;-61
2023/07/08 01:25:08;;;;;;;6.05;4.90;;;;;;;25.95;34.64;100903.47;21003209;28;20032;-61
2023/07/08 01:35:11;;;;;;;5.93;4.07;;;;;;;25.89;34.78;100903.88;21024776;28;20453;-61
2023/07/08 01:45:15;;;;;;;4.35;3.95;;;;;;;25.92;35.92;100908.88;21085683;28;20039;-60
2023/07/08 01:55:28;;;;;;;4.57;4.00;;;;;;;25.74;34.81;100875.03;21010547;28;20049;-61
2023/07/08 02:05:29;;;;;;;4.80;4.40;;;;;;;25.89;34.39;100915.94;21000230;28;20093;-60
2023/07/08 02:15:31;;;;;;;4.88;4.38;;;;;;;25.89;34.36;100910.34;20999107;28;20041;-60
2023/07/08 02:25:32;;;;;;;5.00;4.50;;;;;;;25.90;34.10;100894.34;20998639;28;20032;-59
2023/07/08 02:35:34;;;;;;;5.30;4.32;;;;;;;25.77;34.40;100912.84;20996976;28;20067;-60
2023/07/08 02:45:36;;;;;;;4.70;3.90;;;;;;;25.91;34.44;100940.84;20994819;28;20041;-61
2023/07/08 02:55:39;;;;;;;4.97;4.22;;;;;;;25.91;35.05;100947.28;20995656;28;20055;-60
2023/07/08 03:05:40;;;;;;;4.60;4.20;;;;;;;25.92;35.33;100948.09;20995684;28;20384;-60
2023/07/08 03:15:44;;;;;;;4.38;3.97;;;;;;;25.90;35.80;100950.41;20994117;28;20048;-59
2023/07/08 03:25:47;;;;;;;5.20;4.70;;;;;;;25.90;35.00;100958.81;21050349;28;20077;-59
2023/07/08 03:35:49;;;;;;;4.70;3.80;;;;;;;25.90;34.25;100956.03;21028501;28;20110;-61
2023/07/08 03:45:50;;;;;;;4.90;4.40;;;;;;;25.76;34.13;100934.44;21056005;28;20432;-61
2023/07/08 03:55:51;;;;;;;4.05;3.65;;;;;;;25.89;33.85;100954.34;21036494;28;20066;-61
2023/07/08 04:05:53;;;;;;;4.05;3.65;;;;;;;25.83;34.56;100934.84;21069432;28;20066;-61
2023/07/08 04:15:59;;;;;;;7.38;4.10;;;;;;;26.00;35.31;100950.19;21074776;28;20048;-61
2023/07/08 04:26:01;;;;;;;5.15;4.28;;;;;;;26.00;36.47;100951.00;21042543;28;20044;-61
2023/07/08 04:36:03;;;;;;;8.68;4.20;;;;;;;26.04;37.23;100946.41;21055907;28;20040;-62
2023/07/08 04:46:17;;;;;;;7.25;4.95;;;;;;;26.05;36.76;100947.25;21077576;28;20032;-62
2023/07/08 04:56:24;;;;;;;6.30;4.50;;;;;;;26.04;36.57;100956.81;21079936;28;20032;-61
2023/07/08 05:06:26;;;;;;;7.43;4.20;;;;;;;26.08;35.84;100946.63;21088946;28;20043;-61
2023/07/08 05:16:28;;;;;;;4.60;3.88;;;;;;;25.92;35.86;100922.88;21039807;28;20475;-61
2023/07/08 05:26:29;;;;;;;6.32;4.38;;;;;;;26.09;35.89;100953.88;21034781;28;20028;-61
2023/07/08 05:36:31;;;;;;;5.28;4.20;;;;;;;26.09;36.14;100945.47;21086096;28;20048;-61
2023/07/08 05:46:35;;;;;;;4.63;4.07;;;;;;;26.09;36.76;100953.88;21082764;28;20403;-61
2023/07/08 05:56:37;;;;;;;4.40;4.00;;;;;;;26.00;36.82;100938.97;21106897;28;20066;-62
2023/07/08 06:06:38;;;;;;;6.28;4.00;;;;;;;26.09;37.47;100946.31;21074106;28;20537;-61
2023/07/08 06:16:39;;;;;;;5.47;3.72;;;;;;;26.07;35.76;100947.75;21051329;28;20045;-61
2023/07/08 06:26:43;;;;;;;6.55;3.70;;;;;;;25.92;36.00;100914.47;21022373;28;20036;-61
2023/07/08 06:36:45;;;;;;;4.82;4.30;;;;;;;26.03;35.99;100938.34;21030342;28;20044;-58
2023/07/08 06:46:49;;;;;;;5.80;4.10;;;;;;;26.14;35.95;100950.97;21064917;28;20048;-61
2023/07/08 06:56:50;;;;;;;5.57;3.50;;;;;;;26.13;36.32;100949.31;21055229;28;20104;-61
2023/07/08 07:06:54;;;;;;;4.47;3.90;;;;;;;26.10;36.68;100955.53;21047271;28;20039;-61
2023/07/08 07:16:59;;;;;;;3.90;3.50;;;;;;;26.07;37.50;100948.59;21077039;28;20048;-62
2023/07/08 07:27:00;;;;;;;3.75;3.40;;;;;;;26.07;35.88;100931.78;21075011;28;20048;-61
2023/07/08 07:37:02;;;;;;;5.32;4.60;;;;;;;26.07;35.73;100905.69;21076676;28;20445;-60
2023/07/08 07:47:03;;;;;;;4.47;3.60;;;;;;;26.12;36.24;100918.78;21016868;28;20048;-60
2023/07/08 07:57:08;;;;;;;7.15;3.60;;;;;;;26.15;37.07;100923.75;21074484;28;20044;-60
2023/07/08 08:07:10;;;;;;;4.03;3.63;;;;;;;26.15;37.31;100920.94;21160064;28;20089;-61
2023/07/08 08:17:13;;;;;;;3.80;3.40;;;;;;;26.13;37.49;100923.25;21107482;28;20085;-63
2023/07/08 08:27:15;;;;;;;3.22;2.92;;;;;;;26.12;36.31;100918.78;21085811;28;20399;-61
2023/07/08 08:37:16;;;;;;;3.70;3.40;;;;;;;25.92;35.76;100906.06;21007145;28;20495;-61
2023/07/08 08:47:36;;;;;;;4.15;3.20;;;;;;;26.08;35.58;100929.81;21103658;28;20130;-60
2023/07/08 08:57:43;;;;;;;3.70;3.38;;;;;;;26.09;35.43;100929.47;21037211;28;20043;-61
2023/07/08 09:07:47;;;;;;;3.40;3.10;;;;;;;26.10;36.32;100928.31;21077606;27;20044;-61
2023/07/08 09:17:50;;;;;;;3.97;2.78;;;;;;;26.09;36.78;100929.47;21087075;28;20093;-61
2023/07/08 09:27:51;;;;;;;3.83;3.38;;;;;;;26.09;37.32;100937.88;21073909;28;20036;-62
2023/07/08 09:37:54;;;;;;;3.22;2.92;;;;;;;26.01;36.56;100943.41;21080218;28;20102;-62
2023/07/08 09:47:56;;;;;;;5.30;2.83;;;;;;;26.03;35.84;100938.34;21002239;28;20045;-61
2023/07/08 09:58:01;;;;;;;3.10;2.80;;;;;;;26.01;35.43;100923.78;21031170;28;20041;-62
2023/07/08 10:08:20;;;;;;;3.10;2.80;;;;;;;26.02;35.70;100934.69;21046046;28;20119;-62
2023/07/08 10:18:29;;;;;;;3.78;2.72;;;;;;;26.05;35.92;100938.84;21078401;28;20480;-61
2023/07/08 10:28:58;;;;;;;4.97;2.83;;;;;;;25.90;36.83;100916.78;21077245;28;20033;-61
2023/07/08 10:39:20;;;;;;;13.63;3.70;;;;;;;26.10;39.90;100939.53;21059307;28;20052;-61
2023/07/08 10:49:51;;;;;;;4.00;3.17;;;;;;;26.09;38.32;100959.50;21056101;28;20093;-60
2023/07/08 10:59:52;;;;;;;3.40;2.72;;;;;;;26.08;36.33;100952.25;21060813;28;20567;-62
2023/07/08 11:09:59;;;;;;;6.07;2.72;;;;;;;26.05;35.42;100958.47;21079512;28;20441;-61
2023/07/08 11:20:15;;;;;;;3.40;3.10;;;;;;;26.00;35.51;100952.97;21068665;28;20121;-61
2023/07/08 11:30:24;;;;;;;3.67;2.83;;;;;;;26.03;35.58;100978.41;21052511;28;20602;-60
2023/07/08 11:40:26;;;;;;;3.40;3.10;;;;;;;26.02;35.73;100970.31;20998752;28;20047;-61
2023/07/08 11:50:39;;;;;;;3.55;3.17;;;;;;;25.97;36.30;100985.25;21012610;28;20045;-60
2023/07/08 12:00:41;;;;;;;2.83;2.53;;;;;;;25.98;34.68;100994.50;21046327;28;20487;-60
2023/07/08 12:10:51;;;;;;;3.10;2.80;;;;;;;25.97;36.67;100984.44;21067433;28;20109;-59
2023/07/08 12:20:58;;;;;;;3.67;3.13;;;;;;;26.01;35.71;100991.09;21048844;28;20040;-60
2023/07/08 12:31:00;;;;;;;;;;;;;;;25.96;35.16;100999.59;21025670;28;20032;-61
2023/07/08 12:41:05;;;;;;;5.68;3.08;;;;;;;26.01;35.40;100993.88;21030748;28;19916;-58
2023/07/08 12:51:12;;;;;;;7.20;3.03;;;;;;;25.93;35.19;100994.63;21016499;28;20040;-60
2023/07/08 13:01:19;;;;;;;4.88;3.10;;;;;;;25.91;36.22;101002.53;20990867;28;20040;-61
2023/07/08 13:11:24;;;;;;;3.53;2.90;;;;;;;25.88;36.07;101011.56;21073092;28;20149;-60
2023/07/08 13:21:30;;;;;;;4.18;3.33;;;;;;;25.84;35.12;100991.72;21019923;28;20074;-61
2023/07/08 13:31:37;;;;;;;3.55;3.22;;;;;;;25.87;34.46;100990.28;21082641;28;20098;-63
2023/07/08 13:41:44;;;;;;;3.43;3.07;;;;;;;25.82;34.55;100972.41;21076034;28;20048;-60
2023/07/08 13:51:48;;;;;;;4.25;3.30;;;;;;;25.85;35.32;100970.97;21080029;28;20350;-61
2023/07/08 14:01:53;;;;;;;3.67;3.00;;;;;;;25.75;34.14;100972.00;21060670;28;20039;-61
2023/07/08 14:11:54;;;;;;;4.15;3.42;;;;;;;25.77;34.78;100974.50;21071637;28;20028;-61
2023/07/08 14:22:17;;;;;;;3.83;3.30;;;;;;;25.77;36.05;100969.72;21058432;28;20040;-61
2023/07/08 14:32:29;;;;;;;3.95;3.55;;;;;;;25.74;34.61;100952.69;21003952;28;20041;-61
2023/07/08 14:42:30;;;;;;;11.57;3.75;;;;;;;25.72;36.67;100953.00;21025306;28;20521;-58
2023/07/08 14:52:31;;;;;;;43.53;6.50;;;;;;;25.87;37.65;100942.63;21060745;28;20035;-60
2023/07/08 15:02:37;;;;;;;27.75;5.97;;;;;;;26.02;40.72;100945.88;21064874;28;20037;-61
2023/07/08 15:12:41;;;;;;;10.65;5.43;;;;;;;26.17;42.91;100939.13;21055303;28;20036;-61
2023/07/08 15:22:43;;;;;;;14.65;5.13;;;;;;;26.27;44.41;100936.06;21034585;28;20044;-60
2023/07/08 15:32:45;;;;;;;13.23;5.38;;;;;;;26.41;45.21;100938.81;21076838;28;20040;-61
2023/07/08 15:42:50;;;;;;;12.73;5.28;;;;;;;26.52;45.12;100928.19;21063120;28;20407;-61
2023/07/08 15:52:52;;;;;;;7.28;5.03;;;;;;;26.61;45.13;100929.91;21060818;28;20051;-61
2023/07/08 16:02:57;;;;;;;6.55;5.05;;;;;;;26.70;45.26;100927.16;21052382;28;20051;-61
2023/07/08 16:12:59;;;;;;;6.97;5.50;;;;;;;26.75;45.83;100909.34;21070920;28;20074;-61
2023/07/08 16:23:03;;;;;;;8.48;6.38;;;;;;;26.72;45.85;100882.75;21072208;28;20495;-61
2023/07/08 16:33:04;;;;;;;7.75;5.32;;;;;;;26.95;46.45;100896.75;21068961;28;20040;-61
2023/07/08 16:43:31;;;;;;;6.60;5.68;;;;;;;27.04;46.07;100901.25;21073218;28;20093;-61
2023/07/08 16:53:32;;;;;;;8.27;5.80;;;;;;;27.14;46.16;100900.16;21077178;28;20492;-61
2023/07/08 17:03:35;;;;;;;6.35;5.63;;;;;;;27.20;46.29;100901.66;21089566;28;20479;-61
2023/07/08 17:13:36;;;;;;;7.90;6.75;;;;;;;27.28;46.21;100884.00;21074824;28;20032;-61
2023/07/08 17:23:41;;;;;;;7.32;6.10;;;;;;;27.35;46.27;100872.28;21071881;28;20048;-60
2023/07/08 17:33:42;;;;;;;9.75;6.43;;;;;;;27.43;47.09;100870.66;21045853;28;20036;-64
2023/07/08 17:43:46;;;;;;;8.05;5.47;;;;;;;27.41;46.68;100844.88;21052821;28;20036;-75
2023/07/08 17:53:48;;;;;;;7.38;6.68;;;;;;;27.50;47.00;100846.53;21004293;28;20094;-74
2023/07/08 18:03:49;;;;;;;8.10;7.15;;;;;;;27.30;46.84;100805.00;21003000;28;20036;-75
2023/07/08 18:13:51;;;;;;;7.93;6.82;;;;;;;27.55;46.86;100831.50;21002301;28;20043;-74
2023/07/08 18:23:57;;;;;;;7.25;6.55;;;;;;;27.65;46.83;100848.03;21001878;28;20058;-74
2023/07/08 18:34:05;;;;;;;7.35;6.65;;;;;;;27.72;46.78;100856.88;21000728;28;20141;-74
2023/07/08 18:44:23;;;;;;;7.45;6.60;;;;;;;27.66;46.61;100827.19;20998428;28;20070;-74
2023/07/08 18:54:25;;;;;;;7.05;6.35;;;;;;;27.78;46.52;100843.47;21000070;28;20368;-72
2023/07/08 19:04:28;;;;;;;7.57;6.88;;;;;;;27.76;46.22;100821.28;21001506;28;20024;-74
2023/07/08 19:14:30;;;;;;;8.05;6.35;;;;;;;27.89;46.35;100790.53;21002647;28;20040;-74
2023/07/08 19:24:32;;;;;;;7.00;6.30;;;;;;;27.91;46.55;100766.53;20998621;28;20458;-73
2023/07/08 19:34:34;;;;;;;6.85;6.25;;;;;;;28.00;46.29;100767.34;20994807;28;20365;-74
2023/07/08 19:44:39;;;;;;;7.93;6.70;;;;;;;28.01;45.99;100762.56;20992798;28;20135;-73
2023/07/08 19:54:41;;;;;;;7.68;6.68;;;;;;;28.09;46.04;100806.72;20994342;28;20048;-73
2023/07/08 20:04:47;;;;;;;6.40;5.80;;;;;;;28.15;46.10;100819.44;20993827;28;20045;-74
2023/07/08 20:14:49;;;;;;;6.38;5.45;;;;;;;28.18;46.10;100826.38;20992831;28;20040;-74
2023/07/08 20:24:50;;;;;;;6.50;5.90;;;;;;;28.22;46.35;100838.63;21009633;28;20045;-73
2023/07/08 20:34:51;;;;;;;6.88;5.70;;;;;;;28.23;46.17;100869.25;21010645;28;20078;-74
2023/07/08 20:44:53;;;;;;;7.25;5.50;;;;;;;28.18;46.44;100841.28;21009264;28;20049;-75
2023/07/08 20:54:54;;;;;;;5.88;5.32;;;;;;;28.28;46.31;100885.16;21008902;28;20056;-75
2023/07/08 21:04:56;;;;;;;6.03;5.43;;;;;;;28.30;46.34;100896.88;21008047;28;20028;-75
2023/07/08 21:14:58;;;;;;;6.03;5.43;;;;;;;28.32;46.51;100872.88;21006585;28;20468;-77
2023/07/08 21:25:02;;;;;;;5.97;5.38;;;;;;;28.35;46.35;100888.28;21005966;28;20037;-77
2023/07/08 21:35:04;;;;;;;6.03;5.18;;;;;;;28.38;46.40;100847.41;21004763;28;20033;-74
2023/07/08 21:45:28;;;;;;;5.90;5.30;;;;;;;28.33;46.41;100856.81;21004252;28;20562;-73
2023/07/08 21:55:30;;;;;;;5.70;4.80;;;;;;;28.42;46.59;100854.84;21004337;28;20025;-75
2023/07/08 22:05:31;;;;;;;5.95;5.35;;;;;;;28.40;46.31;100814.94;21003016;28;20541;-74
2023/07/08 22:15:33;;;;;;;4.85;4.32;;;;;;;28.48;46.34;100841.41;21003597;28;20048;-75
2023/07/08 22:25:34;;;;;;;5.10;4.60;;;;;;;28.51;46.52;100857.66;21031140;28;20062;-73
2023/07/08 22:35:39;;;;;;;5.43;4.93;;;;;;;28.54;46.37;100851.34;21060207;28;20108;-75
2023/07/08 22:45:40;;;;;;;5.80;5.25;;;;;;;28.57;46.57;100822.53;21002307;28;21009;-74
2023/07/08 22:55:45;;;;;;;5.30;4.80;;;;;;;28.54;46.66;100840.06;21000726;28;20037;-74
2023/07/08 23:05:50;;;;;;;5.13;4.50;;;;;;;28.58;46.44;100822.16;20998556;28;20025;-76
2023/07/08 23:15:51;;;;;;;4.53;4.13;;;;;;;28.53;45.21;100847.69;20998047;28;20475;-75
2023/07/08 23:25:55;;;;;;;4.72;4.32;;;;;;;28.01;42.76;100838.50;20996977;28;20086;-76
2023/07/08 23:35:56;;;;;;;4.72;3.88;;;;;;;27.69;41.28;100837.81;20995628;28;20055;-74
2023/07/08 23:46:00;;;;;;;4.93;4.43;;;;;;;27.59;40.56;100835.31;20994715;28;20045;-75
2023/07/08 23:56:26;;;;;;;4.28;3.88;;;;;;;27.49;40.01;100821.56;20995381;28;20057;-74
